createdAt,value
2023-12-08T00:01:22.832Z,22.70
2023-12-08T00:05:20.780Z,26.90
2023-12-08T00:09:18.861Z,23.80
2023-12-08T00:13:16.845Z,23.90
2023-12-08T00:17:14.805Z,25.30
2023-12-08T00:21:12.871Z,23.20
2023-12-08T00:25:10.805Z,24.40
2023-12-08T00:29:08.796Z,21.90
2023-12-08T00:33:06.915Z,23.60
2023-12-08T00:37:05.764Z,23.90
2023-12-08T00:41:04.794Z,25.00
2023-12-08T00:45:02.738Z,24.00
2023-12-08T00:49:00.856Z,27.90
2023-12-08T00:52:58.730Z,23.10
2023-12-08T00:56:56.761Z,25.10
2023-12-08T01:00:54.786Z,24.10
2023-12-08T01:04:52.824Z,23.50
2023-12-08T01:08:50.767Z,25.40
2023-12-08T01:12:48.781Z,23.50
2023-12-08T01:16:46.881Z,23.50
2023-12-08T01:20:44.743Z,23.70
2023-12-08T01:24:42.709Z,21.70
2023-12-08T01:28:40.742Z,22.10
2023-12-08T01:32:38.781Z,21.40
2023-12-08T01:36:42.469Z,26.70
2023-12-08T01:40:41.702Z,21.60
2023-12-08T01:44:39.711Z,22.50
2023-12-08T01:48:37.767Z,23.70
2023-12-08T01:52:39.729Z,23.50
2023-12-08T01:56:37.669Z,22.90
2023-12-08T02:00:35.752Z,25.70
2023-12-08T02:04:33.661Z,23.70
2023-12-08T02:08:32.692Z,22.20
2023-12-08T02:12:30.642Z,25.50
2023-12-08T02:16:39.689Z,24.70
2023-12-08T02:20:37.671Z,28.00
2023-12-08T02:24:35.603Z,22.20
2023-12-08T02:28:34.605Z,26.10
2023-12-08T02:32:47.739Z,26.70
2023-12-08T02:36:45.614Z,24.70
2023-12-08T02:40:43.629Z,25.50
2023-12-08T02:44:34.762Z,25.30
2023-12-08T02:48:32.667Z,26.00
2023-12-08T02:52:30.577Z,23.40
2023-12-08T02:56:28.608Z,25.30
2023-12-08T03:00:26.555Z,24.10
2023-12-08T03:04:24.618Z,25.10
2023-12-08T03:08:22.538Z,26.80
2023-12-08T03:12:20.622Z,28.00
2023-12-08T03:16:18.549Z,26.60
2023-12-08T03:20:16.621Z,26.30
2023-12-08T03:24:14.544Z,24.60
2023-12-08T03:28:12.522Z,26.00
2023-12-08T03:32:10.556Z,26.70
2023-12-08T03:36:08.543Z,25.70
2023-12-08T03:40:06.493Z,27.60
2023-12-08T03:44:04.531Z,30.10
2023-12-08T03:48:02.620Z,26.90
2023-12-08T03:52:00.534Z,27.60
2023-12-08T03:55:58.476Z,25.10
2023-12-08T03:59:58.546Z,28.00
2023-12-08T04:03:56.522Z,26.30
2023-12-08T04:07:54.476Z,25.60
2023-12-08T04:11:52.520Z,25.60
2023-12-08T04:15:50.507Z,27.60
2023-12-08T04:19:48.447Z,26.10
2023-12-08T04:23:46.601Z,26.40
2023-12-08T04:27:44.440Z,29.70
2023-12-08T04:31:42.447Z,27.40
2023-12-08T04:35:40.479Z,26.70
2023-12-08T04:39:38.446Z,27.30
2023-12-08T04:43:36.447Z,26.10
2023-12-08T04:47:34.551Z,28.10
2023-12-08T04:51:32.416Z,26.30
2023-12-08T04:55:30.443Z,27.70
2023-12-08T04:59:28.422Z,29.60
2023-12-08T05:03:26.539Z,25.40
2023-12-08T05:07:24.611Z,29.00
2023-12-08T05:11:22.378Z,25.20
2023-12-08T05:15:20.415Z,25.50
2023-12-08T05:19:18.587Z,27.00
2023-12-08T05:23:16.347Z,28.60
2023-12-08T05:27:14.526Z,26.30
2023-12-08T05:31:12.485Z,25.80
2023-12-08T05:35:10.365Z,26.50
2023-12-08T05:39:08.363Z,26.10
2023-12-08T05:43:06.367Z,28.70
2023-12-08T05:47:04.339Z,28.50
2023-12-08T05:51:02.390Z,26.90
2023-12-08T05:55:00.431Z,28.30
2023-12-08T05:58:58.384Z,25.90
2023-12-08T06:02:56.329Z,23.90
2023-12-08T06:06:54.408Z,25.40
2023-12-08T06:10:52.274Z,26.00
2023-12-08T06:14:50.337Z,27.40
2023-12-08T06:18:48.398Z,27.20
2023-12-08T06:22:46.281Z,27.10
2023-12-08T06:26:44.293Z,27.90
2023-12-08T06:30:42.357Z,26.10
2023-12-08T06:34:40.395Z,28.40
2023-12-08T06:38:38.328Z,26.10
2023-12-08T06:42:36.216Z,26.10
2023-12-08T06:46:34.279Z,26.00
2023-12-08T06:50:32.250Z,27.10
2023-12-08T06:54:30.241Z,24.00
2023-12-08T06:58:28.265Z,29.50
2023-12-08T07:02:06.010Z,26.80
2023-12-08T07:05:30.087Z,27.00
2023-12-08T07:08:54.271Z,26.90
2023-12-08T07:12:18.705Z,25.70
2023-12-08T07:15:42.746Z,24.20
2023-12-08T07:19:07.125Z,29.30
2023-12-08T07:22:31.684Z,29.60
2023-12-08T07:25:55.862Z,26.30
2023-12-08T07:29:20.405Z,28.60
2023-12-08T07:32:44.707Z,26.20
2023-12-08T07:36:09.051Z,28.30
2023-12-08T07:39:33.177Z,25.90
2023-12-08T07:42:57.385Z,24.20
2023-12-08T07:46:21.500Z,24.40
2023-12-08T07:49:45.746Z,29.90
2023-12-08T07:53:09.934Z,27.70
2023-12-08T07:56:35.082Z,24.80
2023-12-08T07:59:59.436Z,26.60
2023-12-08T08:03:23.755Z,27.10
2023-12-08T08:06:48.599Z,26.90
2023-12-08T08:10:12.744Z,26.60
2023-12-08T08:13:37.412Z,27.40
2023-12-08T08:17:01.796Z,27.50
2023-12-08T08:20:26.867Z,27.80
2023-12-08T08:23:51.499Z,25.70
2023-12-08T08:27:15.610Z,28.30
2023-12-08T08:30:40.471Z,27.50
2023-12-08T08:34:06.218Z,28.10
2023-12-08T08:40:55.004Z,24.80
2023-12-08T08:44:19.166Z,30.00
2023-12-08T08:47:43.285Z,26.60
2023-12-08T08:51:07.969Z,27.60
2023-12-08T08:54:32.000Z,31.00
2023-12-08T08:57:56.849Z,29.20
2023-12-08T09:01:20.932Z,26.90
2023-12-08T09:04:45.142Z,27.50
2023-12-08T09:08:10.336Z,26.70
2023-12-08T09:11:34.348Z,22.80
2023-12-08T09:14:58.571Z,24.60
2023-12-08T09:18:22.768Z,26.20
2023-12-08T09:21:53.849Z,25.90
2023-12-08T09:25:19.227Z,25.70
2023-12-08T09:28:43.189Z,27.80
2023-12-08T09:32:08.331Z,26.40
2023-12-08T09:35:32.679Z,25.60
2023-12-08T09:38:56.906Z,26.60
2023-12-08T09:42:32.521Z,26.00
2023-12-08T09:45:57.303Z,26.40
2023-12-08T09:49:30.588Z,25.30
2023-12-08T09:52:56.178Z,24.70
2023-12-08T09:56:20.983Z,25.50
2023-12-08T09:59:47.795Z,26.60
2023-12-08T10:03:12.046Z,23.90
2023-12-08T10:06:37.616Z,23.30
2023-12-08T10:10:02.500Z,23.60
2023-12-08T10:13:27.358Z,24.50
2023-12-08T10:16:51.518Z,25.20
2023-12-08T10:20:16.239Z,25.40
2023-12-08T10:23:41.206Z,26.60
2023-12-08T10:27:06.088Z,25.40
2023-12-08T10:30:30.152Z,26.50
2023-12-08T10:33:55.644Z,24.50
2023-12-08T10:40:51.632Z,24.00
2023-12-08T10:44:15.678Z,23.80
2023-12-08T10:47:45.394Z,24.20
2023-12-08T10:51:15.027Z,27.50
2023-12-08T10:54:39.356Z,25.20
2023-12-08T10:58:07.843Z,27.20
2023-12-08T11:01:36.072Z,27.10
2023-12-08T11:05:08.952Z,25.70
2023-12-08T11:08:34.293Z,22.80
2023-12-08T11:12:04.656Z,27.00
2023-12-08T11:15:33.847Z,26.80
2023-12-08T11:18:58.411Z,27.50
2023-12-08T11:22:22.852Z,25.40
2023-12-08T11:26:00.539Z,25.70
2023-12-08T11:29:50.190Z,22.80
2023-12-08T11:33:29.374Z,22.80
2023-12-08T11:36:53.462Z,22.50
2023-12-08T11:40:18.716Z,26.60
2023-12-08T11:43:47.139Z,23.60
2023-12-08T11:47:12.305Z,22.80
2023-12-08T11:50:36.498Z,22.80
2023-12-08T11:54:06.881Z,20.00
2023-12-08T11:57:31.316Z,21.50
2023-12-08T12:00:58.904Z,21.20
2023-12-08T12:04:24.489Z,22.60
2023-12-08T12:07:50.810Z,23.10
2023-12-08T12:11:19.810Z,21.50
2023-12-08T12:14:49.853Z,22.40
2023-12-08T12:18:15.521Z,21.30
2023-12-08T12:21:39.730Z,20.30
2023-12-08T12:25:04.261Z,20.90
2023-12-08T12:28:28.500Z,21.00
2023-12-08T12:31:52.672Z,20.60
2023-12-08T12:35:17.743Z,23.00
2023-12-08T12:38:43.857Z,23.40
2023-12-08T12:42:08.220Z,23.80
2023-12-08T12:45:34.837Z,22.20
2023-12-08T12:48:59.484Z,22.10
2023-12-08T12:52:24.476Z,23.70
2023-12-08T12:55:50.772Z,22.80
2023-12-08T12:59:14.953Z,21.60
2023-12-08T13:02:38.927Z,21.90
2023-12-08T13:06:02.937Z,23.60
2023-12-08T13:09:30.589Z,23.10
2023-12-08T13:12:54.784Z,21.00
2023-12-08T13:16:19.140Z,22.30
2023-12-08T13:19:43.243Z,22.20
2023-12-08T13:23:07.458Z,23.00
2023-12-08T13:26:33.423Z,22.30
2023-12-08T13:29:58.357Z,24.80
2023-12-08T13:33:23.378Z,25.70
2023-12-08T13:36:47.477Z,25.10
2023-12-08T13:40:13.464Z,23.90
2023-12-08T13:43:37.714Z,24.10
2023-12-08T13:47:01.894Z,23.40
2023-12-08T13:50:26.035Z,22.90
2023-12-08T13:53:50.443Z,24.50
2023-12-08T13:57:14.682Z,25.80
2023-12-08T14:00:38.785Z,24.60
2023-12-08T14:04:03.084Z,24.60
2023-12-08T14:07:27.462Z,25.00
2023-12-08T14:10:51.711Z,23.50
2023-12-08T14:14:15.876Z,21.70
2023-12-08T14:17:40.152Z,22.20
2023-12-08T14:21:04.500Z,26.70
2023-12-08T14:24:29.087Z,22.90
2023-12-08T14:27:53.203Z,25.90
2023-12-08T14:31:37.620Z,21.70
2023-12-08T14:35:35.878Z,24.10
2023-12-08T14:39:33.613Z,26.40
2023-12-08T14:43:31.709Z,23.40
2023-12-08T14:47:29.771Z,20.50
2023-12-08T14:51:37.619Z,21.80
2023-12-08T14:55:35.645Z,21.70
2023-12-08T14:59:33.644Z,21.20
2023-12-08T15:03:31.681Z,24.40
2023-12-08T15:07:29.652Z,21.90
2023-12-08T15:11:28.581Z,24.70
2023-12-08T15:15:35.127Z,22.60
2023-12-08T15:19:41.266Z,23.50
2023-12-08T15:23:40.604Z,22.10
2023-12-08T15:27:41.569Z,23.60
2023-12-08T15:31:40.556Z,22.20
2023-12-08T15:35:38.543Z,22.30
2023-12-08T15:39:37.616Z,25.20
2023-12-08T15:43:35.532Z,24.60
2023-12-08T15:47:33.654Z,23.70
2023-12-08T15:51:31.498Z,24.50
2023-12-08T15:55:30.633Z,24.80
2023-12-08T15:59:28.497Z,21.60
2023-12-08T16:03:26.632Z,22.70
2023-12-08T16:07:24.888Z,21.20
2023-12-08T16:11:23.524Z,21.30
2023-12-08T16:15:21.487Z,18.60
2023-12-08T16:19:19.681Z,20.60
2023-12-08T16:23:17.454Z,20.90
2023-12-08T16:27:15.513Z,20.20
2023-12-08T16:31:13.480Z,18.80
2023-12-08T16:35:11.588Z,18.90
2023-12-08T16:39:11.490Z,20.90
2023-12-08T16:43:09.450Z,22.70
2023-12-08T16:47:07.446Z,19.00
2023-12-08T16:51:05.510Z,20.80
2023-12-08T16:55:03.442Z,19.20
2023-12-08T16:59:01.530Z,18.30
2023-12-08T17:02:59.429Z,18.60
2023-12-08T17:07:00.120Z,17.70
2023-12-08T17:10:58.464Z,20.10
2023-12-08T17:14:56.467Z,22.30
2023-12-08T17:18:54.565Z,19.30
2023-12-08T17:22:52.507Z,17.50
2023-12-08T17:26:36.711Z,17.60
2023-12-08T17:30:06.400Z,19.60
2023-12-08T17:33:30.855Z,17.80
2023-12-08T17:36:55.058Z,17.90
2023-12-08T17:40:19.172Z,18.70
2023-12-08T17:43:43.854Z,21.20
2023-12-08T17:47:10.381Z,19.20
2023-12-08T17:50:34.750Z,20.50
2023-12-08T17:53:59.097Z,20.10
2023-12-08T17:57:23.472Z,17.40
2023-12-08T18:00:47.796Z,19.40
2023-12-08T18:04:12.293Z,19.50
2023-12-08T18:07:36.827Z,19.90
2023-12-08T18:11:00.757Z,20.00
2023-12-08T18:14:24.728Z,17.30
2023-12-08T18:17:50.474Z,17.30
2023-12-08T18:21:23.921Z,21.80
2023-12-08T18:24:48.192Z,21.60
2023-12-08T18:28:39.935Z,19.80
2023-12-08T18:31:56.492Z,18.20
2023-12-08T18:35:20.498Z,18.80
2023-12-08T18:38:44.582Z,19.30
2023-12-08T18:42:09.624Z,17.60
2023-12-08T18:45:33.944Z,21.80
2023-12-08T18:49:00.750Z,21.90
2023-12-08T18:52:25.331Z,19.60
2023-12-08T18:55:49.685Z,21.80
2023-12-08T18:59:13.782Z,20.40
2023-12-08T19:02:37.997Z,20.10
2023-12-08T19:06:02.054Z,19.30
2023-12-08T19:09:26.298Z,20.50
2023-12-08T19:12:50.464Z,18.80
2023-12-08T19:16:14.522Z,17.00
2023-12-08T19:19:38.696Z,17.40
2023-12-08T19:23:02.760Z,18.00
2023-12-08T19:26:26.849Z,18.20
2023-12-08T19:29:51.085Z,17.80
2023-12-08T19:33:15.233Z,18.30
2023-12-08T19:36:39.447Z,17.70
2023-12-08T19:40:03.712Z,19.90
2023-12-08T19:43:29.598Z,20.90
2023-12-08T19:46:54.724Z,20.30
2023-12-08T19:50:19.488Z,18.50
2023-12-08T19:53:43.549Z,21.40
2023-12-08T19:57:10.423Z,20.90
2023-12-08T20:00:34.614Z,19.10
2023-12-08T20:03:58.793Z,18.00
2023-12-08T20:07:23.901Z,18.20
2023-12-08T20:10:48.167Z,16.70
2023-12-08T20:14:12.237Z,19.30
2023-12-08T20:17:36.289Z,19.90
2023-12-08T20:21:00.449Z,18.20
2023-12-08T20:24:24.810Z,20.20
2023-12-08T20:27:50.197Z,22.00
2023-12-08T20:31:21.904Z,18.30
2023-12-08T20:34:46.056Z,19.60
2023-12-08T20:38:10.075Z,18.70
2023-12-08T20:41:34.136Z,20.20
2023-12-08T20:44:58.132Z,19.50
2023-12-08T20:48:22.340Z,20.20
2023-12-08T20:51:46.802Z,20.30
2023-12-08T20:55:11.286Z,18.80
2023-12-08T20:58:35.707Z,20.60
2023-12-08T21:01:59.807Z,19.40
2023-12-08T21:05:23.923Z,20.00
2023-12-08T21:08:48.245Z,19.70
2023-12-08T21:12:12.725Z,21.50
2023-12-08T21:15:37.001Z,19.70
2023-12-08T21:19:01.392Z,21.80
2023-12-08T21:22:25.683Z,20.40
2023-12-08T21:25:49.710Z,21.60
2023-12-08T21:29:13.700Z,20.50
2023-12-08T21:32:38.884Z,21.80
2023-12-08T21:36:03.990Z,19.50
2023-12-08T21:39:28.335Z,19.90
2023-12-08T21:42:54.429Z,21.20
2023-12-08T21:46:18.582Z,20.70
2023-12-08T21:49:43.042Z,23.00
2023-12-08T21:53:07.923Z,22.30
2023-12-08T21:56:32.008Z,22.60
2023-12-08T21:59:56.046Z,19.60
2023-12-08T22:03:21.789Z,21.70
2023-12-08T22:10:11.013Z,21.60
2023-12-08T22:13:35.105Z,20.50
2023-12-08T22:16:59.216Z,22.30
2023-12-08T22:20:23.249Z,21.70
2023-12-08T22:23:47.597Z,23.70
2023-12-08T22:27:11.630Z,23.10
2023-12-08T22:30:36.167Z,22.40
2023-12-08T22:34:00.485Z,23.30
2023-12-08T22:37:25.005Z,22.20
2023-12-08T22:40:49.128Z,21.30
2023-12-08T22:44:13.289Z,23.30
2023-12-08T22:47:37.215Z,22.00
2023-12-08T22:51:07.452Z,20.30
2023-12-08T22:54:38.084Z,22.70
2023-12-08T22:58:02.187Z,21.30
2023-12-08T23:01:26.150Z,22.30
2023-12-08T23:04:50.275Z,22.80
2023-12-08T23:08:14.594Z,23.60
2023-12-08T23:11:39.127Z,22.50
2023-12-08T23:15:04.617Z,21.80
2023-12-08T23:18:28.780Z,22.70
2023-12-08T23:21:52.991Z,20.60
2023-12-08T23:25:17.195Z,20.00
2023-12-08T23:28:41.791Z,22.90
2023-12-08T23:32:06.260Z,20.80
2023-12-08T23:35:31.128Z,23.40
2023-12-08T23:38:55.466Z,23.20
2023-12-08T23:42:19.468Z,22.20
2023-12-08T23:45:43.637Z,21.50
2023-12-08T23:49:08.177Z,22.10
2023-12-08T23:52:32.271Z,21.50
2023-12-08T23:55:56.217Z,21.60
2023-12-08T23:59:20.206Z,23.30
